sensor_id;sensor_type;location;lat;lon;timestamp;pressure;altitude;pressure_sealevel;temperature;humidity
61345;BME280;47216;42.656;23.232;2022-10-16T00:00:39;94545.84;;;6.88;80.07
61345;BME280;47216;42.656;23.232;2022-10-16T00:03:07;94547.41;;;6.96;80.08
61345;BME280;47216;42.656;23.232;2022-10-16T00:05:38;94551.03;;;6.88;79.23
61345;BME280;47216;42.656;23.232;2022-10-16T00:08:05;94555.19;;;6.96;80.03
61345;BME280;47216;42.656;23.232;2022-10-16T00:10:32;94554.97;;;6.97;79.64
61345;BME280;47216;42.656;23.232;2022-10-16T00:12:59;94559.81;;;6.87;79.74
61345;BME280;47216;42.656;23.232;2022-10-16T00:15:26;94561.84;;;6.71;80.28
61345;BME280;47216;42.656;23.232;2022-10-16T00:17:55;94553.66;;;6.74;80.03
61345;BME280;47216;42.656;23.232;2022-10-16T00:20:22;94559.81;;;6.87;80.06
61345;BME280;47216;42.656;23.232;2022-10-16T00:22:52;94557.78;;;6.96;79.60
61345;BME280;47216;42.656;23.232;2022-10-16T00:25:19;94560.56;;;6.94;79.28
61345;BME280;47216;42.656;23.232;2022-10-16T00:27:45;94560.94;;;6.98;78.61
61345;BME280;47216;42.656;23.232;2022-10-16T00:30:12;94566.56;;;6.88;78.86
61345;BME280;47216;42.656;23.232;2022-10-16T00:32:39;94561.63;;;6.80;79.45
61345;BME280;47216;42.656;23.232;2022-10-16T00:35:07;94571.38;;;6.84;79.25
61345;BME280;47216;42.656;23.232;2022-10-16T00:37:34;94560.78;;;6.86;79.62
61345;BME280;47216;42.656;23.232;2022-10-16T00:40:01;94571.56;;;6.89;79.28
61345;BME280;47216;42.656;23.232;2022-10-16T00:42:28;94568.53;;;6.99;78.95
61345;BME280;47216;42.656;23.232;2022-10-16T00:44:56;94561.16;;;6.96;78.57
61345;BME280;47216;42.656;23.232;2022-10-16T00:47:27;94564.75;;;6.95;78.28
61345;BME280;47216;42.656;23.232;2022-10-16T00:49:59;94562.16;;;6.95;78.14
61345;BME280;47216;42.656;23.232;2022-10-16T00:52:29;94561.00;;;6.91;77.82
61345;BME280;47216;42.656;23.232;2022-10-16T00:54:56;94559.81;;;6.87;77.30
61345;BME280;47216;42.656;23.232;2022-10-16T00:57:24;94563.81;;;6.83;77.48
61345;BME280;47216;42.656;23.232;2022-10-16T00:59:52;94565.47;;;6.70;78.21
61345;BME280;47216;42.656;23.232;2022-10-16T01:02:19;94568.91;;;6.51;79.08
61345;BME280;47216;42.656;23.232;2022-10-16T01:04:50;94569.53;;;6.40;79.51
61345;BME280;47216;42.656;23.232;2022-10-16T01:07:28;94572.31;;;6.45;79.94
61345;BME280;47216;42.656;23.232;2022-10-16T01:10:07;94569.06;;;6.56;79.16
61345;BME280;47216;42.656;23.232;2022-10-16T01:12:41;94572.47;;;6.63;78.96
61345;BME280;47216;42.656;23.232;2022-10-16T01:15:14;94572.63;;;6.68;78.16
61345;BME280;47216;42.656;23.232;2022-10-16T01:17:45;94573.44;;;6.62;77.52
61345;BME280;47216;42.656;23.232;2022-10-16T01:20:20;94565.50;;;6.57;77.77
61345;BME280;47216;42.656;23.232;2022-10-16T01:22:59;94564.56;;;6.45;78.44
61345;BME280;47216;42.656;23.232;2022-10-16T01:25:39;94560.00;;;6.34;79.30
61345;BME280;47216;42.656;23.232;2022-10-16T01:28:13;94554.19;;;6.38;79.04
61345;BME280;47216;42.656;23.232;2022-10-16T01:30:42;94552.78;;;6.42;78.66
61345;BME280;47216;42.656;23.232;2022-10-16T01:33:14;94554.19;;;6.45;78.25
61345;BME280;47216;42.656;23.232;2022-10-16T01:35:46;94557.75;;;6.50;78.11
61345;BME280;47216;42.656;23.232;2022-10-16T01:38:17;94558.34;;;6.46;77.63
61345;BME280;47216;42.656;23.232;2022-10-16T01:40:51;94568.13;;;6.44;77.51
61345;BME280;47216;42.656;23.232;2022-10-16T01:43:26;94559.16;;;6.46;77.59
61345;BME280;47216;42.656;23.232;2022-10-16T01:45:55;94570.09;;;6.48;77.56
61345;BME280;47216;42.656;23.232;2022-10-16T01:48:23;94570.69;;;6.50;77.83
61345;BME280;47216;42.656;23.232;2022-10-16T01:50:54;94572.09;;;6.53;77.52
61345;BME280;47216;42.656;23.232;2022-10-16T01:53:22;94568.31;;;6.49;77.19
61345;BME280;47216;42.656;23.232;2022-10-16T01:55:52;94570.69;;;6.50;77.42
61345;BME280;47216;42.656;23.232;2022-10-16T01:58:24;94571.13;;;6.47;77.12
61345;BME280;47216;42.656;23.232;2022-10-16T02:00:53;94574.16;;;6.31;78.17
61345;BME280;47216;42.656;23.232;2022-10-16T02:03:21;94582.31;;;6.21;79.00
61345;BME280;47216;42.656;23.232;2022-10-16T02:05:50;94585.13;;;6.13;79.34
61345;BME280;47216;42.656;23.232;2022-10-16T02:08:18;94586.69;;;6.14;79.39
61345;BME280;47216;42.656;23.232;2022-10-16T02:10:45;94589.69;;;6.18;79.62
61345;BME280;47216;42.656;23.232;2022-10-16T02:13:17;94585.50;;;6.23;79.34
61345;BME280;47216;42.656;23.232;2022-10-16T02:15:47;94591.88;;;6.21;79.27
61345;BME280;47216;42.656;23.232;2022-10-16T02:18:14;94591.91;;;6.01;79.63
61345;BME280;47216;42.656;23.232;2022-10-16T02:20:45;94601.63;;;5.72;80.50
61345;BME280;47216;42.656;23.232;2022-10-16T02:23:20;94598.22;;;5.65;81.79
61345;BME280;47216;42.656;23.232;2022-10-16T02:25:50;94601.44;;;5.74;81.45
61345;BME280;47216;42.656;23.232;2022-10-16T02:28:22;94609.22;;;5.87;81.95
61345;BME280;47216;42.656;23.232;2022-10-16T02:30:57;94610.59;;;5.89;81.50
61345;BME280;47216;42.656;23.232;2022-10-16T02:33:25;94608.22;;;5.95;80.92
61345;BME280;47216;42.656;23.232;2022-10-16T02:35:54;94600.28;;;5.96;80.73
61345;BME280;47216;42.656;23.232;2022-10-16T02:38:25;94597.47;;;5.98;80.83
61345;BME280;47216;42.656;23.232;2022-10-16T02:40:52;94603.84;;;6.02;80.57
61345;BME280;47216;42.656;23.232;2022-10-16T02:43:19;94604.81;;;6.07;80.35
61345;BME280;47216;42.656;23.232;2022-10-16T02:45:46;94606.63;;;6.07;80.42
61345;BME280;47216;42.656;23.232;2022-10-16T02:48:14;94615.41;;;5.99;80.57
61345;BME280;47216;42.656;23.232;2022-10-16T02:50:41;94609.03;;;5.95;80.94
61345;BME280;47216;42.656;23.232;2022-10-16T02:53:08;94615.00;;;5.96;80.78
61345;BME280;47216;42.656;23.232;2022-10-16T02:55:35;94618.78;;;6.00;80.49
61345;BME280;47216;42.656;23.232;2022-10-16T02:58:02;94616.97;;;6.14;80.62
61345;BME280;47216;42.656;23.232;2022-10-16T03:00:28;94618.97;;;6.18;80.39
61345;BME280;47216;42.656;23.232;2022-10-16T03:02:55;94619.75;;;6.19;80.24
61345;BME280;47216;42.656;23.232;2022-10-16T03:05:23;94622.16;;;6.27;79.77
61345;BME280;47216;42.656;23.232;2022-10-16T03:07:50;94619.75;;;6.25;79.78
61345;BME280;47216;42.656;23.232;2022-10-16T03:10:17;94617.16;;;6.25;79.60
61345;BME280;47216;42.656;23.232;2022-10-16T03:12:44;94622.53;;;6.30;79.52
61345;BME280;47216;42.656;23.232;2022-10-16T03:15:11;94623.13;;;6.32;78.94
61345;BME280;47216;42.656;23.232;2022-10-16T03:17:38;94620.53;;;6.32;79.09
61345;BME280;47216;42.656;23.232;2022-10-16T03:20:06;94619.34;;;6.42;78.52
61345;BME280;47216;42.656;23.232;2022-10-16T03:22:34;94620.53;;;6.46;79.10
61345;BME280;47216;42.656;23.232;2022-10-16T03:25:01;94622.50;;;6.50;78.41
61345;BME280;47216;42.656;23.232;2022-10-16T03:27:28;94625.50;;;6.54;78.21
61345;BME280;47216;42.656;23.232;2022-10-16T03:29:55;94630.88;;;6.52;78.14
61345;BME280;47216;42.656;23.232;2022-10-16T03:32:22;94635.28;;;6.52;77.56
61345;BME280;47216;42.656;23.232;2022-10-16T03:34:50;94639.06;;;6.49;77.56
61345;BME280;47216;42.656;23.232;2022-10-16T03:37:18;94636.66;;;6.48;77.29
61345;BME280;47216;42.656;23.232;2022-10-16T03:39:46;94637.88;;;6.52;77.42
61345;BME280;47216;42.656;23.232;2022-10-16T03:42:13;94626.31;;;6.41;76.71
61345;BME280;47216;42.656;23.232;2022-10-16T03:44:40;94633.69;;;6.38;77.34
61345;BME280;47216;42.656;23.232;2022-10-16T03:47:08;94633.69;;;6.38;76.93
61345;BME280;47216;42.656;23.232;2022-10-16T03:49:34;94627.72;;;6.30;77.44
61345;BME280;47216;42.656;23.232;2022-10-16T03:52:01;94627.34;;;6.27;78.04
61345;BME280;47216;42.656;23.232;2022-10-16T03:54:28;94627.34;;;6.14;77.41
61345;BME280;47216;42.656;23.232;2022-10-16T03:56:56;94624.56;;;6.15;77.95
61345;BME280;47216;42.656;23.232;2022-10-16T03:59:23;94623.97;;;6.06;77.90
61345;BME280;47216;42.656;23.232;2022-10-16T04:01:50;94621.38;;;6.00;78.31
61345;BME280;47216;42.656;23.232;2022-10-16T04:04:17;94615.81;;;5.96;78.32
61345;BME280;47216;42.656;23.232;2022-10-16T04:06:43;94626.13;;;5.83;79.26
61345;BME280;47216;42.656;23.232;2022-10-16T04:09:10;94623.47;;;5.50;79.60
61345;BME280;47216;42.656;23.232;2022-10-16T04:11:37;94622.47;;;5.37;80.37
61345;BME280;47216;42.656;23.232;2022-10-16T04:14:05;94617.72;;;5.41;81.05
61345;BME280;47216;42.656;23.232;2022-10-16T04:16:32;94612.16;;;5.51;80.86
61345;BME280;47216;42.656;23.232;2022-10-16T04:18:59;94616.16;;;5.60;80.63
61345;BME280;47216;42.656;23.232;2022-10-16T04:21:26;94626.88;;;5.70;79.31
61345;BME280;47216;42.656;23.232;2022-10-16T04:23:53;94621.50;;;5.65;79.36
61345;BME280;47216;42.656;23.232;2022-10-16T04:26:20;94624.50;;;5.62;78.58
61345;BME280;47216;42.656;23.232;2022-10-16T04:28:47;94623.69;;;5.55;78.67
61345;BME280;47216;42.656;23.232;2022-10-16T04:31:15;94620.09;;;5.49;79.46
61345;BME280;47216;42.656;23.232;2022-10-16T04:33:42;94629.25;;;5.58;79.79
61345;BME280;47216;42.656;23.232;2022-10-16T04:36:09;94625.69;;;5.66;79.12
61345;BME280;47216;42.656;23.232;2022-10-16T04:38:36;94635.66;;;5.69;78.44
61345;BME280;47216;42.656;23.232;2022-10-16T04:41:05;94630.28;;;5.77;78.44
61345;BME280;47216;42.656;23.232;2022-10-16T04:43:32;94631.88;;;5.78;78.25
61345;BME280;47216;42.656;23.232;2022-10-16T04:45:59;94638.03;;;5.77;78.40
61345;BME280;47216;42.656;23.232;2022-10-16T04:48:27;94640.44;;;5.72;77.99
61345;BME280;47216;42.656;23.232;2022-10-16T04:50:54;94640.84;;;5.69;78.00
61345;BME280;47216;42.656;23.232;2022-10-16T04:53:21;94645.59;;;5.72;78.41
61345;BME280;47216;42.656;23.232;2022-10-16T04:55:49;94644.03;;;5.71;78.18
61345;BME280;47216;42.656;23.232;2022-10-16T04:58:16;94653.56;;;5.77;77.82
61345;BME280;47216;42.656;23.232;2022-10-16T05:00:43;94654.16;;;5.79;77.76
61345;BME280;47216;42.656;23.232;2022-10-16T05:03:11;94657.53;;;5.80;77.43
61345;BME280;47216;42.656;23.232;2022-10-16T05:05:43;94659.94;;;5.81;77.40
61345;BME280;47216;42.656;23.232;2022-10-16T05:08:11;94658.38;;;5.80;77.12
61345;BME280;47216;42.656;23.232;2022-10-16T05:10:38;94663.91;;;5.77;77.01
61345;BME280;47216;42.656;23.232;2022-10-16T05:13:05;94661.56;;;5.82;77.30
61345;BME280;47216;42.656;23.232;2022-10-16T05:15:32;94665.56;;;5.92;77.04
61345;BME280;47216;42.656;23.232;2022-10-16T05:17:59;94671.16;;;6.02;76.70
61345;BME280;47216;42.656;23.232;2022-10-16T05:20:25;94676.31;;;5.95;76.46
61345;BME280;47216;42.656;23.232;2022-10-16T05:22:54;94670.56;;;6.00;76.53
61345;BME280;47216;42.656;23.232;2022-10-16T05:25:20;94676.72;;;5.99;76.47
61345;BME280;47216;42.656;23.232;2022-10-16T05:27:47;94678.75;;;6.10;76.79
61345;BME280;47216;42.656;23.232;2022-10-16T05:30:14;94675.94;;;6.18;76.61
61345;BME280;47216;42.656;23.232;2022-10-16T05:32:41;94674.34;;;6.30;76.65
61345;BME280;47216;42.656;23.232;2022-10-16T05:35:08;94676.50;;;6.47;76.38
61345;BME280;47216;42.656;23.232;2022-10-16T05:37:35;94677.53;;;6.46;76.32
61345;BME280;47216;42.656;23.232;2022-10-16T05:40:04;94676.13;;;6.50;76.24
61345;BME280;47216;42.656;23.232;2022-10-16T05:42:31;94682.50;;;6.54;76.67
61345;BME280;47216;42.656;23.232;2022-10-16T05:44:57;94682.28;;;6.62;77.09
61345;BME280;47216;42.656;23.232;2022-10-16T05:47:24;94680.63;;;6.88;75.79
61345;BME280;47216;42.656;23.232;2022-10-16T05:49:51;94683.03;;;6.96;75.66
61345;BME280;47216;42.656;23.232;2022-10-16T05:52:18;94688.16;;;7.09;75.58
61345;BME280;47216;42.656;23.232;2022-10-16T05:54:45;94692.63;;;7.41;76.89
61345;BME280;47216;42.656;23.232;2022-10-16T05:57:13;94697.19;;;7.52;76.22
61345;BME280;47216;42.656;23.232;2022-10-16T05:59:40;94703.94;;;7.53;75.50
61345;BME280;47216;42.656;23.232;2022-10-16T06:02:08;94706.16;;;7.49;75.39
61345;BME280;47216;42.656;23.232;2022-10-16T06:04:38;94710.78;;;7.47;75.59
61345;BME280;47216;42.656;23.232;2022-10-16T06:07:07;94702.53;;;7.57;75.66
61345;BME280;47216;42.656;23.232;2022-10-16T06:09:34;94707.09;;;7.62;75.38
61345;BME280;47216;42.656;23.232;2022-10-16T06:12:01;94712.41;;;7.80;75.88
61345;BME280;47216;42.656;23.232;2022-10-16T06:14:29;94709.34;;;7.90;75.87
61345;BME280;47216;42.656;23.232;2022-10-16T06:16:56;94713.03;;;8.07;74.82
61345;BME280;47216;42.656;23.232;2022-10-16T06:19:22;94708.75;;;8.19;75.14
61345;BME280;47216;42.656;23.232;2022-10-16T06:21:49;94709.31;;;8.28;75.26
61345;BME280;47216;42.656;23.232;2022-10-16T06:24:16;94715.44;;;8.40;74.67
61345;BME280;47216;42.656;23.232;2022-10-16T06:26:43;94718.50;;;8.56;74.84
61345;BME280;47216;42.656;23.232;2022-10-16T06:29:09;94727.19;;;8.68;73.60
61345;BME280;47216;42.656;23.232;2022-10-16T06:31:38;94723.47;;;8.82;74.31
61345;BME280;47216;42.656;23.232;2022-10-16T06:34:04;94721.19;;;8.93;74.67
61345;BME280;47216;42.656;23.232;2022-10-16T06:36:34;94727.25;;;9.05;74.96
61345;BME280;47216;42.656;23.232;2022-10-16T06:39:02;94731.41;;;9.13;74.50
61345;BME280;47216;42.656;23.232;2022-10-16T06:41:29;94728.28;;;9.22;74.57
61345;BME280;47216;42.656;23.232;2022-10-16T06:43:56;94739.41;;;9.30;74.53
61345;BME280;47216;42.656;23.232;2022-10-16T06:46:24;94735.31;;;9.40;74.79
61345;BME280;47216;42.656;23.232;2022-10-16T06:48:53;94736.03;;;9.48;74.70
61345;BME280;47216;42.656;23.232;2022-10-16T06:51:21;94730.44;;;9.62;74.99
61345;BME280;47216;42.656;23.232;2022-10-16T06:53:49;94735.34;;;9.71;74.43
61345;BME280;47216;42.656;23.232;2022-10-16T06:56:18;94742.84;;;9.79;74.63
61345;BME280;47216;42.656;23.232;2022-10-16T06:58:46;94743.69;;;9.91;74.14
61345;BME280;47216;42.656;23.232;2022-10-16T07:01:14;94751.22;;;9.99;73.57
61345;BME280;47216;42.656;23.232;2022-10-16T07:03:43;94755.31;;;10.07;73.14
61345;BME280;47216;42.656;23.232;2022-10-16T07:06:13;94750.78;;;10.14;72.56
61345;BME280;47216;42.656;23.232;2022-10-16T07:08:42;94752.03;;;10.12;72.41
61345;BME280;47216;42.656;23.232;2022-10-16T07:11:10;94750.00;;;10.14;72.95
61345;BME280;47216;42.656;23.232;2022-10-16T07:13:39;94754.00;;;10.28;72.17
61345;BME280;47216;42.656;23.232;2022-10-16T07:16:07;94758.16;;;10.36;71.68
61345;BME280;47216;42.656;23.232;2022-10-16T07:18:34;94760.09;;;10.40;71.66
61345;BME280;47216;42.656;23.232;2022-10-16T07:21:05;94774.81;;;10.46;72.22
61345;BME280;47216;42.656;23.232;2022-10-16T07:23:33;94762.28;;;10.55;71.59
61345;BME280;47216;42.656;23.232;2022-10-16T07:26:00;94761.72;;;10.65;71.58
61345;BME280;47216;42.656;23.232;2022-10-16T07:28:28;94759.25;;;10.70;71.22
61345;BME280;47216;42.656;23.232;2022-10-16T07:30:54;94756.88;;;10.80;71.47
61345;BME280;47216;42.656;23.232;2022-10-16T07:33:21;94755.28;;;10.91;71.54
61345;BME280;47216;42.656;23.232;2022-10-16T07:35:50;94764.69;;;11.04;70.18
61345;BME280;47216;42.656;23.232;2022-10-16T07:38:17;94767.41;;;11.09;69.47
61345;BME280;47216;42.656;23.232;2022-10-16T07:40:45;94756.75;;;11.10;68.95
61345;BME280;47216;42.656;23.232;2022-10-16T07:43:12;94762.34;;;11.14;68.68
61345;BME280;47216;42.656;23.232;2022-10-16T07:45:46;94764.59;;;11.22;68.63
61345;BME280;47216;42.656;23.232;2022-10-16T07:48:14;94773.09;;;11.29;68.76
61345;BME280;47216;42.656;23.232;2022-10-16T07:50:41;94776.50;;;11.42;68.20
61345;BME280;47216;42.656;23.232;2022-10-16T07:53:08;94781.47;;;11.43;68.53
61345;BME280;47216;42.656;23.232;2022-10-16T07:55:36;94775.81;;;11.46;68.40
61345;BME280;47216;42.656;23.232;2022-10-16T07:58:04;94778.72;;;11.62;68.28
61345;BME280;47216;42.656;23.232;2022-10-16T08:00:32;94779.72;;;11.72;67.82
61345;BME280;47216;42.656;23.232;2022-10-16T08:02:58;94774.13;;;11.81;67.45
61345;BME280;47216;42.656;23.232;2022-10-16T08:05:26;94774.03;;;11.87;66.48
61345;BME280;47216;42.656;23.232;2022-10-16T08:07:53;94765.03;;;11.95;66.31
61345;BME280;47216;42.656;23.232;2022-10-16T08:10:21;94769.97;;;12.08;66.45
61345;BME280;47216;42.656;23.232;2022-10-16T08:12:48;94769.38;;;12.18;66.09
61345;BME280;47216;42.656;23.232;2022-10-16T08:15:17;94764.16;;;12.18;65.74
61345;BME280;47216;42.656;23.232;2022-10-16T08:17:44;94768.13;;;12.21;66.55
61345;BME280;47216;42.656;23.232;2022-10-16T08:20:11;94768.78;;;12.28;66.48
61345;BME280;47216;42.656;23.232;2022-10-16T08:22:38;94772.38;;;12.38;65.47
61345;BME280;47216;42.656;23.232;2022-10-16T08:25:05;94767.53;;;12.47;65.31
61345;BME280;47216;42.656;23.232;2022-10-16T08:27:32;94769.75;;;12.55;65.88
61345;BME280;47216;42.656;23.232;2022-10-16T08:29:59;94765.47;;;12.66;65.05
61345;BME280;47216;42.656;23.232;2022-10-16T08:32:27;94764.38;;;12.79;63.82
61345;BME280;47216;42.656;23.232;2022-10-16T08:34:53;94760.81;;;12.85;64.37
61345;BME280;47216;42.656;23.232;2022-10-16T08:37:20;94763.44;;;12.85;63.62
61345;BME280;47216;42.656;23.232;2022-10-16T08:39:47;94760.72;;;12.80;63.40
61345;BME280;47216;42.656;23.232;2022-10-16T08:42:26;94753.59;;;12.92;63.40
61345;BME280;47216;42.656;23.232;2022-10-16T08:45:14;94763.09;;;12.98;63.45
61345;BME280;47216;42.656;23.232;2022-10-16T08:47:58;94761.50;;;13.14;63.48
61345;BME280;47216;42.656;23.232;2022-10-16T08:50:28;94767.53;;;13.15;62.75
61345;BME280;47216;42.656;23.232;2022-10-16T08:52:57;94766.75;;;13.31;61.79
61345;BME280;47216;42.656;23.232;2022-10-16T08:55:33;94768.81;;;13.29;62.06
61345;BME280;47216;42.656;23.232;2022-10-16T08:58:10;94764.38;;;13.30;61.84
61345;BME280;47216;42.656;23.232;2022-10-16T09:00:39;94776.81;;;13.39;62.03
61345;BME280;47216;42.656;23.232;2022-10-16T09:03:17;94774.34;;;13.50;61.90
61345;BME280;47216;42.656;23.232;2022-10-16T09:06:06;94781.75;;;13.58;60.33
61345;BME280;47216;42.656;23.232;2022-10-16T09:08:42;94776.34;;;13.64;60.01
61345;BME280;47216;42.656;23.232;2022-10-16T09:11:18;94771.72;;;13.72;59.21
61345;BME280;47216;42.656;23.232;2022-10-16T09:13:50;94779.78;;;13.87;58.94
61345;BME280;47216;42.656;23.232;2022-10-16T09:16:23;94766.59;;;14.04;59.16
61345;BME280;47216;42.656;23.232;2022-10-16T09:18:58;94760.78;;;14.02;58.47
61345;BME280;47216;42.656;23.232;2022-10-16T09:21:29;94753.09;;;14.17;57.88
61345;BME280;47216;42.656;23.232;2022-10-16T09:23:58;94757.25;;;14.13;56.82
61345;BME280;47216;42.656;23.232;2022-10-16T09:26:26;94761.59;;;14.29;56.85
61345;BME280;47216;42.656;23.232;2022-10-16T09:28:53;94767.94;;;14.34;55.98
61345;BME280;47216;42.656;23.232;2022-10-16T09:31:22;94770.41;;;14.45;54.44
61345;BME280;47216;42.656;23.232;2022-10-16T09:33:54;94763.50;;;14.61;54.39
61345;BME280;47216;42.656;23.232;2022-10-16T09:36:23;94761.22;;;14.70;54.61
61345;BME280;47216;42.656;23.232;2022-10-16T09:39:02;94764.59;;;14.65;54.48
61345;BME280;47216;42.656;23.232;2022-10-16T09:41:29;94767.53;;;14.74;52.64
61345;BME280;47216;42.656;23.232;2022-10-16T09:43:57;94774.88;;;14.72;52.43
61345;BME280;47216;42.656;23.232;2022-10-16T09:46:27;94766.78;;;14.79;53.16
61345;BME280;47216;42.656;23.232;2022-10-16T09:48:57;94744.59;;;14.97;51.04
61345;BME280;47216;42.656;23.232;2022-10-16T09:51:27;94753.31;;;15.02;50.79
61345;BME280;47216;42.656;23.232;2022-10-16T09:53:56;94749.66;;;15.08;50.05
61345;BME280;47216;42.656;23.232;2022-10-16T09:56:25;94748.97;;;15.18;50.42
61345;BME280;47216;42.656;23.232;2022-10-16T09:58:54;94748.41;;;15.16;49.90
61345;BME280;47216;42.656;23.232;2022-10-16T10:01:30;94751.28;;;15.15;49.15
61345;BME280;47216;42.656;23.232;2022-10-16T10:03:59;94750.06;;;15.27;49.17
61345;BME280;47216;42.656;23.232;2022-10-16T10:06:29;94755.59;;;15.31;49.86
61345;BME280;47216;42.656;23.232;2022-10-16T10:09:04;94752.97;;;15.36;49.81
61345;BME280;47216;42.656;23.232;2022-10-16T10:11:48;94746.19;;;15.40;50.30
61345;BME280;47216;42.656;23.232;2022-10-16T10:14:21;94754.69;;;15.58;48.33
61345;BME280;47216;42.656;23.232;2022-10-16T10:16:49;94748.34;;;15.53;48.52
61345;BME280;47216;42.656;23.232;2022-10-16T10:19:19;94748.63;;;15.57;48.62
61345;BME280;47216;42.656;23.232;2022-10-16T10:21:47;94735.00;;;15.65;47.80
61345;BME280;47216;42.656;23.232;2022-10-16T10:24:16;94748.41;;;15.64;46.99
61345;BME280;47216;42.656;23.232;2022-10-16T10:26:49;94747.09;;;15.66;47.29
61345;BME280;47216;42.656;23.232;2022-10-16T10:29:31;94739.97;;;15.62;47.00
61345;BME280;47216;42.656;23.232;2022-10-16T10:32:12;94728.53;;;15.88;46.37
61345;BME280;47216;42.656;23.232;2022-10-16T10:35:01;94729.06;;;15.85;46.05
61345;BME280;47216;42.656;23.232;2022-10-16T10:37:45;94738.53;;;15.91;46.97
61345;BME280;47216;42.656;23.232;2022-10-16T10:40:24;94722.81;;;16.02;47.14
61345;BME280;47216;42.656;23.232;2022-10-16T10:42:59;94717.56;;;16.12;47.14
61345;BME280;47216;42.656;23.232;2022-10-16T10:45:38;94719.94;;;16.18;46.69
61345;BME280;47216;42.656;23.232;2022-10-16T10:48:22;94706.03;;;16.38;46.26
61345;BME280;47216;42.656;23.232;2022-10-16T10:50:57;94716.03;;;16.42;45.98
61345;BME280;47216;42.656;23.232;2022-10-16T10:53:37;94706.78;;;16.49;45.33
61345;BME280;47216;42.656;23.232;2022-10-16T10:56:16;94702.84;;;16.47;45.14
61345;BME280;47216;42.656;23.232;2022-10-16T10:59:01;94703.41;;;16.64;45.02
61345;BME280;47216;42.656;23.232;2022-10-16T11:01:35;94706.78;;;16.75;44.90
61345;BME280;47216;42.656;23.232;2022-10-16T11:04:29;94704.44;;;16.78;44.84
61345;BME280;47216;42.656;23.232;2022-10-16T11:07:04;94694.47;;;16.80;43.31
61345;BME280;47216;42.656;23.232;2022-10-16T11:09:34;94698.94;;;16.85;44.10
61345;BME280;47216;42.656;23.232;2022-10-16T11:12:06;94700.78;;;16.90;44.38
61345;BME280;47216;42.656;23.232;2022-10-16T11:14:40;94694.69;;;16.99;43.07
61345;BME280;47216;42.656;23.232;2022-10-16T11:17:11;94691.78;;;17.11;43.30
61345;BME280;47216;42.656;23.232;2022-10-16T11:19:44;94689.66;;;17.13;43.79
61345;BME280;47216;42.656;23.232;2022-10-16T11:22:19;94689.38;;;17.10;44.29
61345;BME280;47216;42.656;23.232;2022-10-16T11:24:53;94681.22;;;17.16;43.89
61345;BME280;47216;42.656;23.232;2022-10-16T11:27:27;94685.91;;;17.35;41.66
61345;BME280;47216;42.656;23.232;2022-10-16T11:29:59;94680.13;;;17.28;42.34
61345;BME280;47216;42.656;23.232;2022-10-16T11:32:32;94688.28;;;17.36;43.61
61345;BME280;47216;42.656;23.232;2022-10-16T11:35:07;94684.34;;;17.34;40.75
61345;BME280;47216;42.656;23.232;2022-10-16T11:37:40;94688.25;;;17.41;42.10
61345;BME280;47216;42.656;23.232;2022-10-16T11:40:20;94684.81;;;17.46;41.42
61345;BME280;47216;42.656;23.232;2022-10-16T11:42:51;94691.38;;;17.49;41.44
61345;BME280;47216;42.656;23.232;2022-10-16T11:45:28;94679.47;;;17.61;40.49
61345;BME280;47216;42.656;23.232;2022-10-16T11:48:02;94682.66;;;17.58;41.28
61345;BME280;47216;42.656;23.232;2022-10-16T11:50:38;94686.31;;;17.62;41.16
61345;BME280;47216;42.656;23.232;2022-10-16T11:53:15;94682.09;;;17.67;40.03
61345;BME280;47216;42.656;23.232;2022-10-16T11:55:45;94685.25;;;17.69;39.69
61345;BME280;47216;42.656;23.232;2022-10-16T11:58:19;94683.13;;;17.71;39.16
61345;BME280;47216;42.656;23.232;2022-10-16T12:00:55;94681.00;;;17.83;39.43
61345;BME280;47216;42.656;23.232;2022-10-16T12:03:29;94683.38;;;17.84;40.30
61345;BME280;47216;42.656;23.232;2022-10-16T12:06:20;94680.94;;;17.93;40.71
61345;BME280;47216;42.656;23.232;2022-10-16T12:08:51;94672.22;;;17.98;39.67
61345;BME280;47216;42.656;23.232;2022-10-16T12:11:31;94677.50;;;17.98;40.45
61345;BME280;47216;42.656;23.232;2022-10-16T12:14:19;94683.28;;;17.95;38.89
61345;BME280;47216;42.656;23.232;2022-10-16T12:16:54;94677.25;;;17.94;38.60
61345;BME280;47216;42.656;23.232;2022-10-16T12:19:23;94675.91;;;17.97;38.76
61345;BME280;47216;42.656;23.232;2022-10-16T12:21:51;94678.25;;;18.03;39.07
61345;BME280;47216;42.656;23.232;2022-10-16T12:24:32;94680.78;;;18.19;39.37
61345;BME280;47216;42.656;23.232;2022-10-16T12:27:00;94678.94;;;18.19;38.49
61345;BME280;47216;42.656;23.232;2022-10-16T12:29:33;94685.47;;;18.27;37.78
61345;BME280;47216;42.656;23.232;2022-10-16T12:32:01;94679.41;;;18.26;37.96
61345;BME280;47216;42.656;23.232;2022-10-16T12:34:32;94676.00;;;18.26;38.28
61345;BME280;47216;42.656;23.232;2022-10-16T12:37:10;94676.16;;;18.40;38.20
61345;BME280;47216;42.656;23.232;2022-10-16T12:39:39;94679.31;;;18.42;38.71
61345;BME280;47216;42.656;23.232;2022-10-16T12:42:20;94684.78;;;18.51;39.38
61345;BME280;47216;42.656;23.232;2022-10-16T12:44:48;94673.66;;;18.54;39.74
61345;BME280;47216;42.656;23.232;2022-10-16T12:47:23;94680.78;;;18.58;39.88
61345;BME280;47216;42.656;23.232;2022-10-16T12:49:51;94681.34;;;18.50;41.28
61345;BME280;47216;42.656;23.232;2022-10-16T12:52:35;94678.13;;;18.58;41.24
61345;BME280;47216;42.656;23.232;2022-10-16T12:55:09;94684.47;;;18.57;40.79
61345;BME280;47216;42.656;23.232;2022-10-16T12:57:57;94697.00;;;18.76;38.55
61345;BME280;47216;42.656;23.232;2022-10-16T13:00:33;94688.38;;;18.65;39.28
61345;BME280;47216;42.656;23.232;2022-10-16T13:03:24;94683.13;;;18.60;38.95
61345;BME280;47216;42.656;23.232;2022-10-16T13:06:06;94684.75;;;18.56;39.67
61345;BME280;47216;42.656;23.232;2022-10-16T13:08:49;94693.94;;;18.63;40.88
61345;BME280;47216;42.656;23.232;2022-10-16T13:11:29;94690.47;;;18.68;39.91